createdAt,value
2022-08-19T00:02:07.248Z,11.53
2022-08-19T00:04:39.039Z,13.87
2022-08-19T00:07:09.744Z,9.33
2022-08-19T00:09:38.929Z,6.53
2022-08-19T00:12:08.429Z,8.33
2022-08-19T00:14:44.614Z,9.90
2022-08-19T00:17:13.995Z,11.27
2022-08-19T00:19:44.504Z,10.27
2022-08-19T00:22:15.884Z,11.07
2022-08-19T00:24:50.814Z,11.20
2022-08-19T00:27:26.073Z,11.73
2022-08-19T00:29:56.520Z,9.30
2022-08-19T00:32:27.212Z,9.77
2022-08-19T00:34:58.098Z,9.87
2022-08-19T00:37:28.061Z,10.07
2022-08-19T00:39:58.497Z,9.23
2022-08-19T00:42:29.715Z,8.53
2022-08-19T00:44:59.137Z,8.90
2022-08-19T00:47:28.337Z,7.17
2022-08-19T00:50:00.879Z,7.20
2022-08-19T00:52:34.951Z,7.83
2022-08-19T00:55:06.518Z,7.90
2022-08-19T00:57:40.575Z,10.33
2022-08-19T01:00:14.620Z,8.93
2022-08-19T01:02:44.768Z,8.83
2022-08-19T01:05:19.804Z,7.10
2022-08-19T01:07:50.378Z,7.40
2022-08-19T01:10:23.578Z,9.50
2022-08-19T01:12:53.934Z,10.67
2022-08-19T01:15:26.846Z,10.00
2022-08-19T01:17:57.942Z,7.70
2022-08-19T01:20:28.536Z,8.10
2022-08-19T01:23:01.221Z,10.93
2022-08-19T01:25:34.446Z,10.27
2022-08-19T01:28:10.655Z,11.53
2022-08-19T01:30:44.255Z,11.03
2022-08-19T01:33:13.796Z,10.40
2022-08-19T01:35:43.721Z,10.90
2022-08-19T01:38:24.126Z,11.47
2022-08-19T01:40:53.813Z,10.33
2022-08-19T01:43:23.056Z,10.30
2022-08-19T01:45:52.298Z,9.80
2022-08-19T01:48:21.475Z,7.97
2022-08-19T01:50:50.756Z,8.43
2022-08-19T01:53:21.244Z,9.87
2022-08-19T01:55:52.963Z,12.80
2022-08-19T01:58:26.949Z,12.73
2022-08-19T02:00:56.166Z,9.87
2022-08-19T02:03:25.326Z,11.37
2022-08-19T02:05:58.991Z,11.47
2022-08-19T02:08:30.245Z,12.23
2022-08-19T02:13:29.114Z,13.73
2022-08-19T02:15:59.121Z,15.90
2022-08-19T02:18:29.455Z,12.33
2022-08-19T02:20:59.386Z,12.57
2022-08-19T02:23:29.802Z,11.67
2022-08-19T02:25:59.485Z,12.87
2022-08-19T02:28:28.635Z,12.03
2022-08-19T02:30:57.701Z,11.77
2022-08-19T02:33:26.936Z,12.17
2022-08-19T02:35:55.966Z,11.27
2022-08-19T02:38:31.137Z,13.53
2022-08-19T02:41:03.398Z,13.93
2022-08-19T02:43:37.657Z,12.50
2022-08-19T02:46:15.355Z,11.50
2022-08-19T02:48:44.856Z,14.40
2022-08-19T02:51:20.507Z,14.33
2022-08-19T02:53:49.985Z,14.47
2022-08-19T02:56:20.863Z,14.17
2022-08-19T02:58:53.273Z,13.57
2022-08-19T03:01:26.880Z,13.13
2022-08-19T03:03:56.711Z,11.43
2022-08-19T03:06:27.124Z,13.23
2022-08-19T03:08:57.688Z,14.00
2022-08-19T03:11:32.152Z,13.30
2022-08-19T03:14:02.534Z,16.03
2022-08-19T03:16:34.267Z,15.43
2022-08-19T03:19:04.534Z,14.10
2022-08-19T03:21:36.083Z,15.23
2022-08-19T03:24:08.395Z,13.77
2022-08-19T03:26:42.876Z,12.03
2022-08-19T03:29:13.372Z,11.63
2022-08-19T03:31:52.250Z,9.23
2022-08-19T03:34:24.606Z,11.37
2022-08-19T03:36:53.640Z,10.67
2022-08-19T03:39:23.085Z,12.47
2022-08-19T03:42:32.734Z,11.03
2022-08-19T03:44:47.498Z,10.90
2022-08-19T03:47:17.989Z,12.07
2022-08-19T03:49:47.615Z,11.17
2022-08-19T03:52:17.126Z,11.57
2022-08-19T03:54:46.455Z,12.23
2022-08-19T03:57:17.287Z,11.73
2022-08-19T03:59:47.458Z,11.70
2022-08-19T04:02:16.516Z,11.37
2022-08-19T04:04:46.966Z,10.23
2022-08-19T04:07:20.425Z,11.73
2022-08-19T04:09:50.517Z,12.13
2022-08-19T04:12:21.727Z,11.40
2022-08-19T04:14:51.102Z,8.27
2022-08-19T04:17:20.918Z,7.60
2022-08-19T04:19:51.368Z,7.83
2022-08-19T04:22:22.088Z,8.20
2022-08-19T04:24:51.388Z,8.10
2022-08-19T04:27:21.991Z,7.13
2022-08-19T04:29:52.657Z,7.13
2022-08-19T04:32:22.309Z,9.37
2022-08-19T04:35:03.026Z,9.47
2022-08-19T04:37:41.625Z,9.10
2022-08-19T04:40:28.954Z,9.33
2022-08-19T04:42:59.666Z,10.30
2022-08-19T04:45:28.765Z,10.13
2022-08-19T04:48:26.405Z,11.67
2022-08-19T04:50:59.597Z,10.73
2022-08-19T04:53:30.016Z,11.50
2022-08-19T04:56:09.722Z,11.13
2022-08-19T04:58:43.721Z,11.73
2022-08-19T05:01:15.590Z,12.13
2022-08-19T05:03:44.711Z,11.23
2022-08-19T05:06:16.098Z,12.00
2022-08-19T05:08:46.669Z,11.63
2022-08-19T05:11:17.416Z,13.27
2022-08-19T05:13:49.739Z,12.20
2022-08-19T05:16:21.037Z,12.20
2022-08-19T05:19:07.899Z,12.03
2022-08-19T05:21:55.834Z,11.77
2022-08-19T05:24:28.698Z,11.97
2022-08-19T05:27:00.417Z,11.80
2022-08-19T05:29:36.396Z,11.53
2022-08-19T05:32:10.184Z,11.20
2022-08-19T05:34:40.260Z,10.87
2022-08-19T05:37:10.564Z,10.20
2022-08-19T05:39:41.883Z,11.40
2022-08-19T05:42:12.874Z,10.43
2022-08-19T05:44:46.022Z,10.00
2022-08-19T05:47:16.173Z,9.90
2022-08-19T05:49:45.838Z,10.37
2022-08-19T05:52:18.600Z,10.40
2022-08-19T05:54:51.460Z,10.53
2022-08-19T05:57:21.661Z,9.83
2022-08-19T05:59:53.179Z,10.30
2022-08-19T06:02:27.685Z,10.10
2022-08-19T06:04:56.822Z,9.00
2022-08-19T06:07:26.489Z,10.50
2022-08-19T06:10:00.347Z,9.00
2022-08-19T06:12:32.950Z,9.27
2022-08-19T06:15:06.772Z,9.40
2022-08-19T06:17:36.403Z,9.47
2022-08-19T06:20:06.543Z,8.90
2022-08-19T06:22:40.608Z,9.00
2022-08-19T06:25:10.686Z,8.63
2022-08-19T06:27:58.605Z,9.10
2022-08-19T06:30:30.915Z,9.00
2022-08-19T06:32:59.852Z,9.33
2022-08-19T06:35:30.913Z,9.10
2022-08-19T06:38:00.627Z,8.33
2022-08-19T06:40:29.660Z,9.20
2022-08-19T06:43:01.010Z,9.17
2022-08-19T06:45:35.412Z,9.07
2022-08-19T06:48:08.296Z,8.47
2022-08-19T06:50:39.729Z,8.57
2022-08-19T06:53:10.250Z,8.80
2022-08-19T06:55:39.296Z,8.70
2022-08-19T06:58:08.275Z,7.60
2022-08-19T07:00:40.175Z,8.40
2022-08-19T07:03:09.542Z,7.80
2022-08-19T07:05:45.369Z,7.23
2022-08-19T07:08:15.283Z,8.07
2022-08-19T07:10:47.276Z,7.30
2022-08-19T07:13:16.295Z,7.40
2022-08-19T07:15:48.333Z,7.67
2022-08-19T07:18:17.387Z,7.93
2022-08-19T07:20:46.476Z,7.35
2022-08-19T07:23:15.786Z,7.53
2022-08-19T07:25:52.763Z,7.50
2022-08-19T07:28:24.197Z,7.00
2022-08-19T07:30:55.826Z,7.03
2022-08-19T07:33:24.767Z,7.33
2022-08-19T07:35:57.155Z,7.60
2022-08-19T07:38:26.095Z,6.88
2022-08-19T07:40:56.506Z,7.05
2022-08-19T07:43:34.873Z,7.35
2022-08-19T07:46:05.780Z,6.95
2022-08-19T07:48:35.396Z,6.80
2022-08-19T07:51:09.566Z,6.80
2022-08-19T07:53:40.134Z,6.95
2022-08-19T07:56:09.398Z,6.97
2022-08-19T07:58:42.878Z,7.15
2022-08-19T08:01:16.841Z,6.80
2022-08-19T08:04:03.015Z,6.75
2022-08-19T08:07:03.880Z,6.82
2022-08-19T08:09:35.657Z,6.47
2022-08-19T08:12:32.903Z,6.60
2022-08-19T08:15:04.199Z,6.10
2022-08-19T08:17:49.109Z,6.05
2022-08-19T08:20:19.891Z,5.70
2022-08-19T08:23:15.621Z,6.55
2022-08-19T08:25:45.178Z,6.60
2022-08-19T08:28:18.844Z,6.28
2022-08-19T08:30:49.299Z,6.03
2022-08-19T08:33:30.218Z,5.97
2022-08-19T08:36:04.251Z,5.80
2022-08-19T08:38:42.741Z,5.72
2022-08-19T08:41:21.804Z,5.40
2022-08-19T08:43:54.335Z,5.43
2022-08-19T08:46:31.565Z,5.28
2022-08-19T08:49:09.827Z,4.85
2022-08-19T08:51:47.435Z,5.13
2022-08-19T08:54:20.619Z,5.22
2022-08-19T08:56:51.808Z,5.45
2022-08-19T08:59:27.009Z,4.90
2022-08-19T09:01:56.140Z,5.40
2022-08-19T09:04:27.000Z,5.10
2022-08-19T09:07:18.005Z,5.18
2022-08-19T09:10:04.781Z,5.18
2022-08-19T09:12:44.950Z,4.97
2022-08-19T09:15:19.403Z,5.22
2022-08-19T09:18:03.264Z,5.18
2022-08-19T09:20:37.722Z,5.25
2022-08-19T09:23:12.280Z,5.03
2022-08-19T09:25:42.490Z,4.97
2022-08-19T09:28:21.966Z,4.93
2022-08-19T09:30:52.923Z,4.88
2022-08-19T09:33:22.269Z,4.72
2022-08-19T09:35:53.432Z,4.45
2022-08-19T09:38:23.349Z,4.72
2022-08-19T09:40:52.247Z,5.00
2022-08-19T09:43:32.841Z,4.78
2022-08-19T09:46:03.092Z,4.60
2022-08-19T09:48:32.740Z,4.53
2022-08-19T09:51:11.809Z,5.30
2022-08-19T09:53:43.371Z,4.40
2022-08-19T09:56:13.187Z,5.10
2022-08-19T09:58:43.300Z,4.95
2022-08-19T10:01:18.050Z,4.82
2022-08-19T10:03:49.536Z,4.38
2022-08-19T10:06:21.279Z,4.97
2022-08-19T10:09:13.232Z,4.72
2022-08-19T10:11:52.271Z,4.03
2022-08-19T10:14:24.828Z,4.55
2022-08-19T10:16:53.933Z,4.47
2022-08-19T10:19:25.692Z,4.32
2022-08-19T10:22:00.202Z,4.65
2022-08-19T10:24:30.777Z,3.97
2022-08-19T10:27:00.741Z,4.60
2022-08-19T10:29:32.544Z,4.13
2022-08-19T10:32:03.372Z,3.97
2022-08-19T10:34:33.301Z,4.47
2022-08-19T10:37:06.212Z,4.50
2022-08-19T10:39:43.143Z,4.78
2022-08-19T10:42:14.579Z,4.22
2022-08-19T10:44:44.376Z,4.68
2022-08-19T10:47:17.621Z,4.10
2022-08-19T10:50:12.393Z,4.47
2022-08-19T10:52:50.100Z,4.60
2022-08-19T10:55:38.885Z,4.30
2022-08-19T10:58:13.684Z,4.10
2022-08-19T11:00:43.668Z,4.50
2022-08-19T11:03:12.695Z,4.68
2022-08-19T11:05:42.204Z,4.53
2022-08-19T11:08:22.121Z,3.80
2022-08-19T11:11:02.432Z,4.53
2022-08-19T11:13:32.286Z,4.18
2022-08-19T11:16:07.114Z,4.53
2022-08-19T11:18:38.695Z,4.13
2022-08-19T11:21:14.126Z,4.00
2022-08-19T11:23:44.575Z,4.00
2022-08-19T11:26:14.038Z,4.20
2022-08-19T11:28:43.374Z,4.60
2022-08-19T11:31:18.495Z,4.68
2022-08-19T11:33:48.119Z,4.50
2022-08-19T11:36:17.974Z,4.10
2022-08-19T11:38:49.534Z,4.15
2022-08-19T11:41:22.205Z,4.18
2022-08-19T11:43:53.674Z,4.65
2022-08-19T11:46:23.905Z,4.47
2022-08-19T11:48:53.444Z,4.22
2022-08-19T11:51:25.929Z,4.05
2022-08-19T11:53:58.029Z,4.05
2022-08-19T11:56:27.923Z,4.68
2022-08-19T11:58:57.972Z,4.43
2022-08-19T12:01:28.792Z,4.32
2022-08-19T12:04:00.296Z,4.25
2022-08-19T12:06:34.554Z,3.92
2022-08-19T12:09:08.576Z,4.47
2022-08-19T12:11:38.240Z,4.00
2022-08-19T12:14:07.633Z,3.92
2022-08-19T12:16:39.817Z,3.97
2022-08-19T12:19:14.907Z,4.28
2022-08-19T12:21:52.141Z,4.18
2022-08-19T12:24:24.543Z,4.30
2022-08-19T12:26:55.651Z,4.05
2022-08-19T12:29:30.888Z,3.65
2022-08-19T12:32:03.860Z,3.92
2022-08-19T12:34:34.497Z,3.85
2022-08-19T12:37:05.994Z,3.97
2022-08-19T12:39:40.194Z,3.53
2022-08-19T12:42:10.408Z,3.90
2022-08-19T12:44:40.669Z,3.75
2022-08-19T12:47:13.326Z,3.92
2022-08-19T12:49:53.215Z,3.83
2022-08-19T12:52:24.666Z,4.18
2022-08-19T12:54:56.712Z,4.00
2022-08-19T12:57:32.454Z,3.70
2022-08-19T13:00:05.812Z,4.05
2022-08-19T13:02:38.921Z,3.95
2022-08-19T13:17:24.422Z,4.03
2022-08-19T13:19:53.416Z,3.67
2022-08-19T13:22:22.418Z,3.67
2022-08-19T13:24:51.936Z,3.70
2022-08-19T13:27:20.903Z,3.50
2022-08-19T13:30:07.302Z,3.70
2022-08-19T13:32:54.868Z,3.65
2022-08-19T13:35:24.426Z,3.50
2022-08-19T13:37:53.660Z,3.45
2022-08-19T13:40:27.798Z,3.42
2022-08-19T13:42:57.778Z,3.55
2022-08-19T13:45:29.224Z,3.60
2022-08-19T13:48:00.748Z,3.75
2022-08-19T13:50:32.830Z,3.47
2022-08-19T13:53:02.359Z,3.45
2022-08-19T13:55:31.730Z,3.38
2022-08-19T13:58:02.828Z,3.13
2022-08-19T14:00:33.969Z,3.42
2022-08-19T14:03:08.697Z,3.20
2022-08-19T14:05:39.418Z,4.03
2022-08-19T14:08:08.665Z,3.38
2022-08-19T14:10:37.680Z,3.53
2022-08-19T14:13:06.846Z,4.22
2022-08-19T14:15:35.910Z,9.50
2022-08-19T14:18:06.791Z,8.82
2022-08-19T14:20:37.373Z,18.55
2022-08-19T14:23:17.045Z,19.55
2022-08-19T14:25:46.061Z,7.28
2022-08-19T14:28:15.143Z,19.27
2022-08-19T14:30:46.347Z,10.38
2022-08-19T14:33:16.817Z,6.45
2022-08-19T14:35:46.239Z,4.53
2022-08-19T14:38:28.127Z,7.00
2022-08-19T14:41:10.420Z,6.47
2022-08-19T14:43:39.619Z,5.63
2022-08-19T14:46:09.381Z,4.00
2022-08-19T14:48:41.568Z,5.72
2022-08-19T14:51:11.342Z,3.33
2022-08-19T14:53:40.509Z,3.55
2022-08-19T14:56:13.482Z,4.10
2022-08-19T14:58:43.604Z,3.67
2022-08-19T15:01:14.109Z,3.10
2022-08-19T15:03:52.762Z,3.60
2022-08-19T15:06:22.327Z,2.90
2022-08-19T15:08:52.992Z,3.85
2022-08-19T15:11:23.934Z,3.72
2022-08-19T15:13:53.233Z,3.28
2022-08-19T15:16:23.004Z,3.40
2022-08-19T15:18:55.511Z,4.00
2022-08-19T15:21:27.556Z,3.30
2022-08-19T15:23:58.040Z,3.10
2022-08-19T15:26:27.720Z,3.30
2022-08-19T15:28:57.392Z,3.00
2022-08-19T15:31:28.144Z,3.10
2022-08-19T15:33:59.680Z,3.42
2022-08-19T15:36:29.632Z,3.67
2022-08-19T15:38:58.711Z,3.78
2022-08-19T15:41:30.917Z,3.40
2022-08-19T15:44:04.226Z,3.70
2022-08-19T15:46:35.551Z,4.00
2022-08-19T15:49:07.140Z,3.05
2022-08-19T15:51:37.620Z,3.47
2022-08-19T15:54:08.944Z,3.90
2022-08-19T15:56:57.912Z,3.53
2022-08-19T15:59:47.095Z,3.38
2022-08-19T16:02:34.871Z,3.78
2022-08-19T16:05:27.689Z,3.28
2022-08-19T16:07:57.045Z,3.60
2022-08-19T16:10:28.009Z,3.95
2022-08-19T16:12:58.115Z,3.50
2022-08-19T16:15:27.757Z,3.35
2022-08-19T16:17:57.854Z,3.45
2022-08-19T16:20:29.072Z,2.80
2022-08-19T16:22:59.087Z,3.70
2022-08-19T16:25:30.385Z,4.95
2022-08-19T16:28:07.320Z,3.47
2022-08-19T16:30:38.686Z,3.40
2022-08-19T16:33:07.858Z,3.33
2022-08-19T16:35:39.054Z,3.45
2022-08-19T16:38:08.426Z,3.00
2022-08-19T16:40:37.960Z,3.50
2022-08-19T16:43:08.720Z,3.40
2022-08-19T16:45:37.953Z,3.45
2022-08-19T16:48:11.720Z,3.40
2022-08-19T16:50:49.988Z,3.97
2022-08-19T16:53:21.250Z,4.07
2022-08-19T16:55:53.640Z,4.05
2022-08-19T16:58:28.585Z,3.90
2022-08-19T17:01:02.016Z,4.30
2022-08-19T17:03:35.780Z,4.40
2022-08-19T17:06:18.976Z,4.35
2022-08-19T17:08:51.179Z,4.90
2022-08-19T17:11:21.472Z,5.72
2022-08-19T17:13:52.413Z,6.60
2022-08-19T17:16:25.144Z,6.45
2022-08-19T17:18:54.961Z,5.50
2022-08-19T17:21:29.374Z,5.03
2022-08-19T17:23:58.511Z,4.65
2022-08-19T17:26:28.497Z,6.00
2022-08-19T17:28:58.976Z,7.25
2022-08-19T17:31:30.459Z,6.07
2022-08-19T17:33:59.809Z,5.78
2022-08-19T17:36:32.391Z,5.50
2022-08-19T17:39:04.071Z,5.50
2022-08-19T17:41:34.438Z,5.68
2022-08-19T17:44:04.023Z,5.85
2022-08-19T17:46:33.069Z,5.72
2022-08-19T17:49:02.068Z,5.35
2022-08-19T17:51:44.235Z,4.30
2022-08-19T17:54:15.970Z,5.18
2022-08-19T17:56:46.683Z,5.05
2022-08-19T17:59:17.348Z,5.07
2022-08-19T18:01:53.671Z,4.60
2022-08-19T18:04:25.253Z,5.30
2022-08-19T18:06:56.194Z,6.25
2022-08-19T18:09:27.160Z,5.40
2022-08-19T18:11:58.261Z,5.93
2022-08-19T18:14:33.810Z,5.33
2022-08-19T18:17:09.506Z,5.90
2022-08-19T18:19:41.855Z,5.37
2022-08-19T18:22:14.447Z,6.20
2022-08-19T18:24:46.037Z,5.37
2022-08-19T18:27:15.175Z,6.90
2022-08-19T18:29:44.294Z,5.80
2022-08-19T18:32:14.113Z,5.90
2022-08-19T18:34:44.080Z,5.90
2022-08-19T18:37:14.561Z,5.67
2022-08-19T18:39:57.350Z,5.53
2022-08-19T18:42:44.380Z,6.30
2022-08-19T18:45:31.380Z,6.10
2022-08-19T18:48:25.770Z,6.30
2022-08-19T18:50:58.214Z,6.33
2022-08-19T18:53:30.510Z,5.53
2022-08-19T18:56:00.153Z,6.40
2022-08-19T18:58:34.599Z,6.43
2022-08-19T19:01:11.780Z,5.57
2022-08-19T19:03:45.599Z,5.50
2022-08-19T19:06:15.829Z,5.70
2022-08-19T19:08:46.235Z,5.17
2022-08-19T19:11:17.965Z,4.80
2022-08-19T19:13:49.165Z,4.67
2022-08-19T19:16:22.423Z,4.70
2022-08-19T19:18:53.428Z,4.50
2022-08-19T19:21:23.945Z,4.90
2022-08-19T19:23:56.144Z,5.50
2022-08-19T19:26:25.635Z,5.23
2022-08-19T19:28:55.345Z,4.70
2022-08-19T19:31:27.514Z,5.03
2022-08-19T19:33:57.785Z,4.90
2022-08-19T19:36:26.817Z,5.50
2022-08-19T19:38:57.289Z,5.40
2022-08-19T19:41:26.873Z,5.23
2022-08-19T19:44:29.244Z,5.50
2022-08-19T19:46:48.538Z,5.30
2022-08-19T19:49:17.672Z,5.30
2022-08-19T19:51:46.825Z,5.90
2022-08-19T19:54:21.733Z,6.43
2022-08-19T19:56:52.885Z,10.67
2022-08-19T19:59:23.256Z,10.00
2022-08-19T20:01:54.498Z,11.27
2022-08-19T20:04:23.905Z,7.33
2022-08-19T20:06:52.879Z,5.83
2022-08-19T20:09:22.304Z,5.93
2022-08-19T20:11:55.086Z,10.13
2022-08-19T20:14:26.545Z,10.10
2022-08-19T20:16:57.223Z,13.37
2022-08-19T20:19:27.622Z,21.27
2022-08-19T20:21:57.813Z,7.03
2022-08-19T20:24:32.719Z,6.97
2022-08-19T20:27:02.330Z,4.80
2022-08-19T20:29:39.368Z,5.50
2022-08-19T20:32:11.754Z,5.00
2022-08-19T20:34:41.743Z,5.23
2022-08-19T20:37:10.704Z,5.00
2022-08-19T20:39:41.220Z,5.53
2022-08-19T20:42:10.181Z,6.43
2022-08-19T20:44:39.351Z,5.30
2022-08-19T20:47:08.446Z,5.43
2022-08-19T20:49:37.863Z,5.57
2022-08-19T20:52:07.502Z,5.47
2022-08-19T20:54:36.539Z,27.57
2022-08-19T20:57:06.894Z,6.03
2022-08-19T20:59:37.753Z,4.87
2022-08-19T21:02:06.866Z,4.93
2022-08-19T21:04:35.880Z,5.43
2022-08-19T21:07:05.219Z,5.00
2022-08-19T21:09:34.358Z,5.10
2022-08-19T21:12:07.758Z,5.60
2022-08-19T21:14:42.742Z,5.53
2022-08-19T21:17:12.229Z,5.43
2022-08-19T21:19:41.229Z,5.43
2022-08-19T21:22:10.667Z,5.70
2022-08-19T21:24:39.682Z,5.80
2022-08-19T21:27:10.173Z,5.57
2022-08-19T21:29:40.824Z,5.50
2022-08-19T21:32:14.239Z,5.57
2022-08-19T21:34:46.371Z,6.03
2022-08-19T21:37:25.765Z,5.30
2022-08-19T21:39:55.409Z,5.70
2022-08-19T21:42:25.943Z,5.33
2022-08-19T21:44:54.883Z,5.67
2022-08-19T21:47:23.941Z,5.67
2022-08-19T21:49:53.035Z,5.63
2022-08-19T21:52:24.010Z,5.87
2022-08-19T21:54:53.306Z,6.10
2022-08-19T21:57:22.865Z,5.63
2022-08-19T21:59:53.415Z,5.57
2022-08-19T22:02:22.565Z,5.57
2022-08-19T22:04:51.820Z,5.70
2022-08-19T22:07:23.906Z,5.73
2022-08-19T22:09:54.623Z,5.93
2022-08-19T22:12:26.746Z,5.50
2022-08-19T22:14:57.783Z,6.10
2022-08-19T22:17:28.279Z,5.97
2022-08-19T22:19:58.745Z,6.17
2022-08-19T22:22:29.317Z,5.73
2022-08-19T22:25:04.380Z,5.77
2022-08-19T22:27:33.744Z,6.10
2022-08-19T22:30:04.647Z,6.10
2022-08-19T22:32:34.142Z,5.73
2022-08-19T22:35:03.797Z,6.10
2022-08-19T22:37:32.752Z,6.33
2022-08-19T22:40:05.482Z,6.00
2022-08-19T22:42:34.729Z,6.10
2022-08-19T22:45:05.844Z,6.20
2022-08-19T22:47:35.529Z,6.00
2022-08-19T22:50:13.863Z,6.90
2022-08-19T22:52:51.895Z,5.87
2022-08-19T22:55:21.626Z,6.27
2022-08-19T22:57:50.584Z,6.27
2022-08-19T23:00:21.840Z,6.40
2022-08-19T23:02:52.581Z,6.40
2022-08-19T23:05:23.715Z,6.03
2022-08-19T23:07:53.078Z,6.70
2022-08-19T23:10:27.550Z,6.57
2022-08-19T23:12:58.646Z,6.90
2022-08-19T23:15:31.704Z,6.87
2022-08-19T23:18:03.003Z,6.80
2022-08-19T23:20:35.415Z,6.80
2022-08-19T23:23:06.117Z,7.17
2022-08-19T23:25:36.636Z,6.17
2022-08-19T23:28:23.356Z,6.70
2022-08-19T23:30:55.224Z,6.70
2022-08-19T23:33:46.776Z,5.83
2022-08-19T23:36:17.957Z,6.43
2022-08-19T23:38:49.515Z,6.40
2022-08-19T23:41:20.507Z,6.60
2022-08-19T23:43:50.820Z,6.63
2022-08-19T23:46:27.406Z,6.90
2022-08-19T23:48:57.660Z,7.40
2022-08-19T23:51:27.035Z,7.37
2022-08-19T23:53:56.115Z,7.93
2022-08-19T23:56:25.219Z,7.60
2022-08-19T23:58:55.243Z,6.90
